Sabinal — WDC2725 — position and weather

sailwx.info

Track history (hours):
 
Tides and Currents Weather Stations Pressure Air Temp Water Temp Dewpoint Dewpoint Depression Visibility Wind Speed Wind Dir Waves Ship Positions

Sabinal

Owner: Kirby Inland Marine, LP, Houston, TX. More information available from US FCC via Universal Licensing System and Coast Guard Vessel Documentation Center.

Last reported at 2018-Jun-19 20:04 UTC. Time now 2018-Jun-21 02:45 UTC.
Position N 29°42' W 095°01'.

Length 20 m; draft 2.9 m.

Type: . MMSI: 366996840.

Date/timePositionNaut miles runAvg speedWind from/ knotsBaromVisibWave heightAir tempDewpointWater temp
2018-Jun-19 20:04N 29°42' W 095°01'1 5.6
2018-Jun-19 19:54N 29°42' W 095°00'1 2.7
2018-Jun-19 19:30N 29°41' W 094°60'1 0.0
2018-Jun-19 04:49N 29°41' W 095°00'0 0.7
2018-Jun-19 04:29N 29°41' W 095°00'2 0.0
2018-Jun-17 16:11N 29°42' W 095°01'2 7.2
2018-Jun-17 15:57N 29°42' W 094°59'3 7.1
2018-Jun-17 15:30N 29°39' W 094°58'5 6.8
2018-Jun-17 14:50N 29°35' W 094°56'15 1.1
2018-Jun-17 01:02N 29°21' W 094°47'0 6.5
2018-Jun-17 01:00N 29°21' W 094°47'19 5.9
2018-Jun-16 21:47N 29°38' W 094°58'2 6.2
2018-Jun-16 21:29N 29°40' W 094°58'  
2018-Jun-12 14:58N 29°42' W 095°01'3 6.9
2018-Jun-12 14:30N 29°40' W 094°58'3 5.9
2018-Jun-12 14:00N 29°37' W 094°58'2 4.4
2018-Jun-12 13:30N 29°37' W 095°00'0 0.0
2018-Jun-12 13:00N 29°37' W 095°00'0 0.0
2018-Jun-12 12:24N 29°37' W 095°00'0 0.0
2018-Jun-12 11:24N 29°37' W 095°00'0 0.0
2018-Jun-12 10:54N 29°37' W 095°00'0 0.0
2018-Jun-12 10:30N 29°37' W 095°00'0 0.0
2018-Jun-12 09:51N 29°37' W 095°00'0 0.0
2018-Jun-12 09:30N 29°37' W 095°00'0 0.0
2018-Jun-12 08:57N 29°37' W 095°00'0 0.0
2018-Jun-12 08:30N 29°37' W 095°00'0 0.0
2018-Jun-12 08:00N 29°37' W 095°00'0 0.0
2018-Jun-12 07:24N 29°37' W 095°00'0 0.0
2018-Jun-12 07:00N 29°37' W 095°00'0 0.0
2018-Jun-12 06:27N 29°37' W 095°00'0 0.0
2018-Jun-12 06:00N 29°37' W 095°00'0 0.0
2018-Jun-12 05:27N 29°37' W 095°00'0 0.0
2018-Jun-12 04:51N 29°37' W 095°00'0 0.0
2018-Jun-12 04:28N 29°37' W 095°00'0 0.0
2018-Jun-12 03:58N 29°37' W 095°00'0 0.0
2018-Jun-12 03:28N 29°37' W 095°00'0 0.0
2018-Jun-12 02:58N 29°37' W 095°00'0 0.0
2018-Jun-12 02:28N 29°37' W 095°00'0 0.0
2018-Jun-12 01:58N 29°37' W 095°00'0 0.0
2018-Jun-12 01:28N 29°37' W 095°00'0 0.0
2018-Jun-12 00:58N 29°37' W 095°00'0 0.0
2018-Jun-12 00:28N 29°37' W 095°00'0 0.0
2018-Jun-11 23:58N 29°37' W 095°00'0 0.0
2018-Jun-11 23:28N 29°37' W 095°00'0 0.0
2018-Jun-11 22:49N 29°37' W 095°00'0 0.0
2018-Jun-11 22:28N 29°37' W 095°00'0 0.0
2018-Jun-11 21:58N 29°37' W 095°00'0 0.0
2018-Jun-11 21:28N 29°37' W 095°00'0 0.1
2018-Jun-11 21:00N 29°37' W 095°00'3 3.9
2018-Jun-11 20:20N 29°37' W 094°57'1 4.5
2018-Jun-11 20:00N 29°38' W 094°58'3 6.1
2018-Jun-11 19:30N 29°41' W 094°59'1 0.0
2018-Jun-10 09:03N 29°42' W 094°60'0 7.7
2018-Jun-10 09:00N 29°42' W 094°59'4 7.4
2018-Jun-10 08:29N 29°38' W 094°58'2 4.2
2018-Jun-10 07:59N 29°37' W 094°60'0 0.9
2018-Jun-10 07:30N 29°37' W 095°00'0 0.0
2018-Jun-10 06:59N 29°37' W 095°00'0 0.0
2018-Jun-10 06:29N 29°37' W 095°00'0 0.0
2018-Jun-10 05:59N 29°37' W 095°00'0 0.0
2018-Jun-10 05:29N 29°37' W 095°00'0 0.0
2018-Jun-10 04:38N 29°37' W 095°00'0 0.0
2018-Jun-10 04:23N 29°37' W 095°00'0 0.0
2018-Jun-10 03:59N 29°37' W 095°00'0 0.0
2018-Jun-10 03:20N 29°37' W 095°00'0 0.0
2018-Jun-10 02:56N 29°37' W 095°00'0 0.0
2018-Jun-10 02:29N 29°37' W 095°00'0 0.0
2018-Jun-10 02:00N 29°37' W 095°00'0 0.0
2018-Jun-10 01:30N 29°37' W 095°00'0 0.0
2018-Jun-10 00:57N 29°37' W 095°00'0 0.0
2018-Jun-10 00:30N 29°37' W 095°00'0 0.0
2018-Jun-10 00:00N 29°37' W 095°00'0 0.0
2018-Jun-09 23:30N 29°37' W 095°00'0 0.1
2018-Jun-09 23:00N 29°37' W 095°00'0 0.2
2018-Jun-09 20:27N 29°37' W 094°60'  
Track history (hours):
 
Tides and Currents Weather Stations Pressure Air Temp Water Temp Dewpoint Dewpoint Depression Visibility Wind Speed Wind Dir Waves Ship Positions

Sabinal

Owner: Kirby Inland Marine, LP, Houston, TX. More information available from US FCC via Universal Licensing System and Coast Guard Vessel Documentation Center.

Last reported at 2018-Jun-19 20:04 UTC. Time now 2018-Jun-21 02:45 UTC.
Position N 29°42' W 095°01'.

Length 20 m; draft 2.9 m.

Type: . MMSI: 366996840.

Date/timePositionNaut miles runAvg speedWind from/ knotsBaromVisibWave heightAir tempDewpointWater temp
2018-Jun-19 20:04N 29°42' W 095°01'1 5.6
2018-Jun-19 19:54N 29°42' W 095°00'1 2.7
2018-Jun-19 19:30N 29°41' W 094°60'1 0.0
2018-Jun-19 04:49N 29°41' W 095°00'0 0.7
2018-Jun-19 04:29N 29°41' W 095°00'2 0.0
2018-Jun-17 16:11N 29°42' W 095°01'2 7.2
2018-Jun-17 15:57N 29°42' W 094°59'3 7.1
2018-Jun-17 15:30N 29°39' W 094°58'5 6.8
2018-Jun-17 14:50N 29°35' W 094°56'15 1.1
2018-Jun-17 01:02N 29°21' W 094°47'0 6.5
2018-Jun-17 01:00N 29°21' W 094°47'19 5.9
2018-Jun-16 21:47N 29°38' W 094°58'2 6.2
2018-Jun-16 21:29N 29°40' W 094°58'  
2018-Jun-12 14:58N 29°42' W 095°01'3 6.9
2018-Jun-12 14:30N 29°40' W 094°58'3 5.9
2018-Jun-12 14:00N 29°37' W 094°58'2 4.4
2018-Jun-12 13:30N 29°37' W 095°00'0 0.0
2018-Jun-12 13:00N 29°37' W 095°00'0 0.0
2018-Jun-12 12:24N 29°37' W 095°00'0 0.0
2018-Jun-12 11:24N 29°37' W 095°00'0 0.0
2018-Jun-12 10:54N 29°37' W 095°00'0 0.0
2018-Jun-12 10:30N 29°37' W 095°00'0 0.0
2018-Jun-12 09:51N 29°37' W 095°00'0 0.0
2018-Jun-12 09:30N 29°37' W 095°00'0 0.0
2018-Jun-12 08:57N 29°37' W 095°00'0 0.0
2018-Jun-12 08:30N 29°37' W 095°00'0 0.0
2018-Jun-12 08:00N 29°37' W 095°00'0 0.0
2018-Jun-12 07:24N 29°37' W 095°00'0 0.0
2018-Jun-12 07:00N 29°37' W 095°00'0 0.0
2018-Jun-12 06:27N 29°37' W 095°00'0 0.0
2018-Jun-12 06:00N 29°37' W 095°00'0 0.0
2018-Jun-12 05:27N 29°37' W 095°00'0 0.0
2018-Jun-12 04:51N 29°37' W 095°00'0 0.0
2018-Jun-12 04:28N 29°37' W 095°00'0 0.0
2018-Jun-12 03:58N 29°37' W 095°00'0 0.0
2018-Jun-12 03:28N 29°37' W 095°00'0 0.0
2018-Jun-12 02:58N 29°37' W 095°00'0 0.0
2018-Jun-12 02:28N 29°37' W 095°00'0 0.0
2018-Jun-12 01:58N 29°37' W 095°00'0 0.0
2018-Jun-12 01:28N 29°37' W 095°00'0 0.0
2018-Jun-12 00:58N 29°37' W 095°00'0 0.0
2018-Jun-12 00:28N 29°37' W 095°00'0 0.0
2018-Jun-11 23:58N 29°37' W 095°00'0 0.0
2018-Jun-11 23:28N 29°37' W 095°00'0 0.0
2018-Jun-11 22:49N 29°37' W 095°00'0 0.0
2018-Jun-11 22:28N 29°37' W 095°00'0 0.0
2018-Jun-11 21:58N 29°37' W 095°00'0 0.0
2018-Jun-11 21:28N 29°37' W 095°00'0 0.1
2018-Jun-11 21:00N 29°37' W 095°00'3 3.9
2018-Jun-11 20:20N 29°37' W 094°57'1 4.5
2018-Jun-11 20:00N 29°38' W 094°58'3 6.1
2018-Jun-11 19:30N 29°41' W 094°59'1 0.0
2018-Jun-10 09:03N 29°42' W 094°60'0 7.7
2018-Jun-10 09:00N 29°42' W 094°59'4 7.4
2018-Jun-10 08:29N 29°38' W 094°58'2 4.2
2018-Jun-10 07:59N 29°37' W 094°60'0 0.9
2018-Jun-10 07:30N 29°37' W 095°00'0 0.0
2018-Jun-10 06:59N 29°37' W 095°00'0 0.0
2018-Jun-10 06:29N 29°37' W 095°00'0 0.0
2018-Jun-10 05:59N 29°37' W 095°00'0 0.0
2018-Jun-10 05:29N 29°37' W 095°00'0 0.0
2018-Jun-10 04:38N 29°37' W 095°00'0 0.0
2018-Jun-10 04:23N 29°37' W 095°00'0 0.0
2018-Jun-10 03:59N 29°37' W 095°00'0 0.0
2018-Jun-10 03:20N 29°37' W 095°00'0 0.0
2018-Jun-10 02:56N 29°37' W 095°00'0 0.0
2018-Jun-10 02:29N 29°37' W 095°00'0 0.0
2018-Jun-10 02:00N 29°37' W 095°00'0 0.0
2018-Jun-10 01:30N 29°37' W 095°00'0 0.0
2018-Jun-10 00:57N 29°37' W 095°00'0 0.0
2018-Jun-10 00:30N 29°37' W 095°00'0 0.0
2018-Jun-10 00:00N 29°37' W 095°00'0 0.0
2018-Jun-09 23:30N 29°37' W 095°00'0 0.1
2018-Jun-09 23:00N 29°37' W 095°00'0 0.2
2018-Jun-09 20:27N 29°37' W 094°60'  

Dump ship's entire track history